sensor_id;sensor_type;location;lat;lon;timestamp;pressure;altitude;pressure_sealevel;temperature;humidity
22025;BME280;11176;51.448;6.650;2023-02-22T00:01:11;45596.06;;;-141.29;100.00
22025;BME280;11176;51.448;6.650;2023-02-22T00:03:48;45606.06;;;-141.29;100.00
22025;BME280;11176;51.448;6.650;2023-02-22T00:06:17;45610.06;;;-141.29;100.00
22025;BME280;11176;51.448;6.650;2023-02-22T00:08:46;45598.06;;;-141.29;100.00
22025;BME280;11176;51.448;6.650;2023-02-22T00:11:12;45610.06;;;-141.29;100.00
22025;BME280;11176;51.448;6.650;2023-02-22T00:13:40;45610.06;;;-141.29;100.00
22025;BME280;11176;51.448;6.650;2023-02-22T00:16:16;45606.06;;;-141.29;100.00
22025;BME280;11176;51.448;6.650;2023-02-22T00:18:43;45600.06;;;-141.29;100.00
22025;BME280;11176;51.448;6.650;2023-02-22T00:21:12;45614.06;;;-141.29;100.00
22025;BME280;11176;51.448;6.650;2023-02-22T00:23:41;45602.06;;;-141.29;100.00
22025;BME280;11176;51.448;6.650;2023-02-22T00:26:14;45606.06;;;-141.29;100.00
22025;BME280;11176;51.448;6.650;2023-02-22T00:28:49;45602.06;;;-141.29;100.00
22025;BME280;11176;51.448;6.650;2023-02-22T00:31:15;45590.09;;;-141.29;100.00
22025;BME280;11176;51.448;6.650;2023-02-22T00:33:43;45602.06;;;-141.29;100.00
22025;BME280;11176;51.448;6.650;2023-02-22T00:36:11;45596.06;;;-141.29;100.00
22025;BME280;11176;51.448;6.650;2023-02-22T00:38:39;45632.06;;;-141.29;100.00
22025;BME280;11176;51.448;6.650;2023-02-22T00:41:06;45606.06;;;-141.29;100.00
22025;BME280;11176;51.448;6.650;2023-02-22T00:43:33;45594.09;;;-141.29;100.00
22025;BME280;11176;51.448;6.650;2023-02-22T00:46:00;45590.09;;;-141.29;100.00
22025;BME280;11176;51.448;6.650;2023-02-22T00:48:27;45616.06;;;-141.29;100.00
22025;BME280;11176;51.448;6.650;2023-02-22T00:50:53;45590.09;;;-141.29;100.00
22025;BME280;11176;51.448;6.650;2023-02-22T00:53:24;45608.06;;;-141.29;100.00
22025;BME280;11176;51.448;6.650;2023-02-22T00:55:51;45594.09;;;-141.29;100.00
22025;BME280;11176;51.448;6.650;2023-02-22T00:58:19;45622.06;;;-141.29;100.00
22025;BME280;11176;51.448;6.650;2023-02-22T01:00:46;45610.06;;;-141.29;100.00
22025;BME280;11176;51.448;6.650;2023-02-22T01:03:15;45610.06;;;-141.29;100.00
22025;BME280;11176;51.448;6.650;2023-02-22T01:05:43;45626.06;;;-141.29;100.00
22025;BME280;11176;51.448;6.650;2023-02-22T01:08:11;45606.06;;;-141.29;100.00
22025;BME280;11176;51.448;6.650;2023-02-22T01:10:38;45612.06;;;-141.29;100.00
22025;BME280;11176;51.448;6.650;2023-02-22T01:13:06;45590.09;;;-141.29;100.00
22025;BME280;11176;51.448;6.650;2023-02-22T01:15:39;45614.06;;;-141.29;100.00
22025;BME280;11176;51.448;6.650;2023-02-22T01:18:07;45616.06;;;-141.29;100.00
22025;BME280;11176;51.448;6.650;2023-02-22T01:20:34;45610.06;;;-141.29;100.00
22025;BME280;11176;51.448;6.650;2023-02-22T01:23:03;45622.06;;;-141.29;100.00
22025;BME280;11176;51.448;6.650;2023-02-22T01:25:32;45608.06;;;-141.29;100.00
22025;BME280;11176;51.448;6.650;2023-02-22T01:28:00;45616.06;;;-141.29;100.00
22025;BME280;11176;51.448;6.650;2023-02-22T01:30:29;45618.06;;;-141.29;100.00
22025;BME280;11176;51.448;6.650;2023-02-22T01:32:56;45602.06;;;-141.29;100.00
22025;BME280;11176;51.448;6.650;2023-02-22T01:35:27;45602.06;;;-141.29;100.00
22025;BME280;11176;51.448;6.650;2023-02-22T01:37:55;45600.06;;;-141.29;100.00
22025;BME280;11176;51.448;6.650;2023-02-22T01:40:24;45608.06;;;-141.29;100.00
22025;BME280;11176;51.448;6.650;2023-02-22T01:42:53;45610.06;;;-141.29;100.00
22025;BME280;11176;51.448;6.650;2023-02-22T01:50:26;45598.06;;;-141.29;100.00
22025;BME280;11176;51.448;6.650;2023-02-22T01:52:53;45598.06;;;-141.29;100.00
22025;BME280;11176;51.448;6.650;2023-02-22T01:55:20;45618.06;;;-141.29;100.00
22025;BME280;11176;51.448;6.650;2023-02-22T01:57:46;45606.06;;;-141.29;100.00
22025;BME280;11176;51.448;6.650;2023-02-22T02:00:18;45624.06;;;-141.29;100.00
22025;BME280;11176;51.448;6.650;2023-02-22T02:03:04;45602.06;;;-141.29;100.00
22025;BME280;11176;51.448;6.650;2023-02-22T02:05:34;45610.06;;;-141.29;100.00
22025;BME280;11176;51.448;6.650;2023-02-22T02:08:10;45608.06;;;-141.29;100.00
22025;BME280;11176;51.448;6.650;2023-02-22T02:10:41;45608.06;;;-141.29;100.00
22025;BME280;11176;51.448;6.650;2023-02-22T02:13:09;45630.06;;;-141.29;100.00
22025;BME280;11176;51.448;6.650;2023-02-22T02:15:36;45622.06;;;-141.29;100.00
22025;BME280;11176;51.448;6.650;2023-02-22T02:18:05;45630.06;;;-141.29;100.00
22025;BME280;11176;51.448;6.650;2023-02-22T02:26:53;45624.06;;;-141.29;100.00
22025;BME280;11176;51.448;6.650;2023-02-22T02:32:28;45632.06;;;-141.29;100.00
22025;BME280;11176;51.448;6.650;2023-02-22T02:40:51;45618.06;;;-141.29;100.00
22025;BME280;11176;51.448;6.650;2023-02-22T02:43:52;45638.06;;;-141.29;100.00
22025;BME280;11176;51.448;6.650;2023-02-22T02:47:03;45622.06;;;-141.29;100.00
22025;BME280;11176;51.448;6.650;2023-02-22T02:49:14;45634.06;;;-141.29;100.00
22025;BME280;11176;51.448;6.650;2023-02-22T02:51:46;45638.06;;;-141.29;100.00
22025;BME280;11176;51.448;6.650;2023-02-22T02:54:14;45634.06;;;-141.29;100.00
22025;BME280;11176;51.448;6.650;2023-02-22T02:56:41;45628.06;;;-141.29;100.00
22025;BME280;11176;51.448;6.650;2023-02-22T02:59:34;45624.06;;;-141.29;100.00
22025;BME280;11176;51.448;6.650;2023-02-22T03:02:47;45634.06;;;-141.29;100.00
22025;BME280;11176;51.448;6.650;2023-02-22T03:08:33;45650.03;;;-141.29;100.00
22025;BME280;11176;51.448;6.650;2023-02-22T03:11:19;45630.06;;;-141.29;100.00
22025;BME280;11176;51.448;6.650;2023-02-22T03:16:42;45638.06;;;-141.29;100.00
22025;BME280;11176;51.448;6.650;2023-02-22T03:19:20;45642.03;;;-141.29;100.00
22025;BME280;11176;51.448;6.650;2023-02-22T03:24:49;45640.03;;;-141.29;100.00
22025;BME280;11176;51.448;6.650;2023-02-22T03:27:37;45638.06;;;-141.29;100.00
22025;BME280;11176;51.448;6.650;2023-02-22T03:30:15;45620.06;;;-141.29;100.00
22025;BME280;11176;51.448;6.650;2023-02-22T03:32:48;45638.06;;;-141.29;100.00
22025;BME280;11176;51.448;6.650;2023-02-22T03:35:20;45630.06;;;-141.29;100.00
22025;BME280;11176;51.448;6.650;2023-02-22T03:37:53;45638.06;;;-141.29;100.00
22025;BME280;11176;51.448;6.650;2023-02-22T03:40:28;45670.03;;;-141.29;100.00
22025;BME280;11176;51.448;6.650;2023-02-22T03:43:08;45638.06;;;-141.29;100.00
22025;BME280;11176;51.448;6.650;2023-02-22T03:45:42;45654.03;;;-141.29;100.00
22025;BME280;11176;51.448;6.650;2023-02-22T03:48:38;45634.06;;;-141.29;100.00
22025;BME280;11176;51.448;6.650;2023-02-22T03:51:05;45628.06;;;-141.29;100.00
22025;BME280;11176;51.448;6.650;2023-02-22T03:53:33;45654.03;;;-141.29;100.00
22025;BME280;11176;51.448;6.650;2023-02-22T03:56:06;45650.03;;;-141.29;100.00
22025;BME280;11176;51.448;6.650;2023-02-22T03:58:37;45640.03;;;-141.29;100.00
22025;BME280;11176;51.448;6.650;2023-02-22T04:01:05;45640.03;;;-141.29;100.00
22025;BME280;11176;51.448;6.650;2023-02-22T04:03:32;45650.03;;;-141.29;100.00
22025;BME280;11176;51.448;6.650;2023-02-22T04:05:58;45646.03;;;-141.29;100.00
22025;BME280;11176;51.448;6.650;2023-02-22T04:08:25;45652.03;;;-141.29;100.00
22025;BME280;11176;51.448;6.650;2023-02-22T04:10:51;45630.06;;;-141.29;100.00
22025;BME280;11176;51.448;6.650;2023-02-22T04:13:20;45650.03;;;-141.29;100.00
22025;BME280;11176;51.448;6.650;2023-02-22T04:15:50;45678.03;;;-141.29;100.00
22025;BME280;11176;51.448;6.650;2023-02-22T04:18:16;45616.06;;;-141.29;100.00
22025;BME280;11176;51.448;6.650;2023-02-22T04:20:45;45654.03;;;-141.29;100.00
22025;BME280;11176;51.448;6.650;2023-02-22T04:23:19;45642.03;;;-141.29;100.00
22025;BME280;11176;51.448;6.650;2023-02-22T04:25:47;45634.06;;;-141.29;100.00
22025;BME280;11176;51.448;6.650;2023-02-22T04:28:15;45626.06;;;-141.29;100.00
22025;BME280;11176;51.448;6.650;2023-02-22T04:30:48;45654.03;;;-141.29;100.00
22025;BME280;11176;51.448;6.650;2023-02-22T04:33:16;45632.06;;;-141.29;100.00
22025;BME280;11176;51.448;6.650;2023-02-22T04:35:43;45622.06;;;-141.29;100.00
22025;BME280;11176;51.448;6.650;2023-02-22T04:38:10;45658.03;;;-141.29;100.00
22025;BME280;11176;51.448;6.650;2023-02-22T04:40:38;45640.03;;;-141.29;100.00
22025;BME280;11176;51.448;6.650;2023-02-22T04:43:06;45628.06;;;-141.29;100.00
22025;BME280;11176;51.448;6.650;2023-02-22T04:45:32;45662.03;;;-141.29;100.00
22025;BME280;11176;51.448;6.650;2023-02-22T04:48:01;45640.03;;;-141.29;100.00
22025;BME280;11176;51.448;6.650;2023-02-22T04:50:27;45630.06;;;-141.29;100.00
22025;BME280;11176;51.448;6.650;2023-02-22T04:52:55;45636.06;;;-141.29;100.00
22025;BME280;11176;51.448;6.650;2023-02-22T04:55:22;45628.06;;;-141.29;100.00
22025;BME280;11176;51.448;6.650;2023-02-22T04:57:48;45658.03;;;-141.29;100.00
22025;BME280;11176;51.448;6.650;2023-02-22T05:00:17;45634.06;;;-141.29;100.00
22025;BME280;11176;51.448;6.650;2023-02-22T05:02:44;45650.03;;;-141.29;100.00
22025;BME280;11176;51.448;6.650;2023-02-22T05:05:13;45622.06;;;-141.29;100.00
22025;BME280;11176;51.448;6.650;2023-02-22T05:07:39;45644.03;;;-141.29;100.00
22025;BME280;11176;51.448;6.650;2023-02-22T05:10:06;45654.03;;;-141.29;100.00
22025;BME280;11176;51.448;6.650;2023-02-22T05:12:34;45650.03;;;-141.29;100.00
22025;BME280;11176;51.448;6.650;2023-02-22T05:15:05;45650.03;;;-141.29;100.00
22025;BME280;11176;51.448;6.650;2023-02-22T05:17:32;45646.03;;;-141.29;100.00
22025;BME280;11176;51.448;6.650;2023-02-22T05:19:59;45642.03;;;-141.29;100.00
22025;BME280;11176;51.448;6.650;2023-02-22T05:22:25;45658.03;;;-141.29;100.00
22025;BME280;11176;51.448;6.650;2023-02-22T05:24:52;45634.06;;;-141.29;100.00
22025;BME280;11176;51.448;6.650;2023-02-22T05:27:18;45642.03;;;-141.29;100.00
22025;BME280;11176;51.448;6.650;2023-02-22T05:29:45;45654.03;;;-141.29;100.00
22025;BME280;11176;51.448;6.650;2023-02-22T05:32:11;45650.03;;;-141.29;100.00
22025;BME280;11176;51.448;6.650;2023-02-22T05:34:39;45642.03;;;-141.29;100.00
22025;BME280;11176;51.448;6.650;2023-02-22T05:37:06;45650.03;;;-141.29;100.00
22025;BME280;11176;51.448;6.650;2023-02-22T05:39:32;45650.03;;;-141.29;100.00
22025;BME280;11176;51.448;6.650;2023-02-22T05:41:58;45654.03;;;-141.29;100.00
22025;BME280;11176;51.448;6.650;2023-02-22T05:44:25;45648.03;;;-141.29;100.00
22025;BME280;11176;51.448;6.650;2023-02-22T05:46:51;45646.03;;;-141.29;100.00
22025;BME280;11176;51.448;6.650;2023-02-22T05:49:18;45630.06;;;-141.29;100.00
22025;BME280;11176;51.448;6.650;2023-02-22T05:51:44;45634.06;;;-141.29;100.00
22025;BME280;11176;51.448;6.650;2023-02-22T05:54:11;45658.03;;;-141.29;100.00
22025;BME280;11176;51.448;6.650;2023-02-22T05:56:37;45658.03;;;-141.29;100.00
22025;BME280;11176;51.448;6.650;2023-02-22T05:59:04;45654.03;;;-141.29;100.00
22025;BME280;11176;51.448;6.650;2023-02-22T06:01:30;45666.03;;;-141.29;100.00
22025;BME280;11176;51.448;6.650;2023-02-22T06:03:56;45638.06;;;-141.29;100.00
22025;BME280;11176;51.448;6.650;2023-02-22T06:06:23;45646.03;;;-141.29;100.00
22025;BME280;11176;51.448;6.650;2023-02-22T06:08:49;45638.06;;;-141.29;100.00
22025;BME280;11176;51.448;6.650;2023-02-22T06:11:16;45658.03;;;-141.29;100.00
22025;BME280;11176;51.448;6.650;2023-02-22T06:13:50;45636.06;;;-141.29;100.00
22025;BME280;11176;51.448;6.650;2023-02-22T06:16:17;45646.03;;;-141.29;100.00
22025;BME280;11176;51.448;6.650;2023-02-22T06:18:44;45664.03;;;-141.29;100.00
22025;BME280;11176;51.448;6.650;2023-02-22T06:21:10;45642.03;;;-141.29;100.00
22025;BME280;11176;51.448;6.650;2023-02-22T06:23:36;45662.03;;;-141.29;100.00
22025;BME280;11176;51.448;6.650;2023-02-22T06:26:03;45670.03;;;-141.29;100.00
22025;BME280;11176;51.448;6.650;2023-02-22T06:28:30;45640.03;;;-141.29;100.00
22025;BME280;11176;51.448;6.650;2023-02-22T06:30:56;45654.03;;;-141.29;100.00
22025;BME280;11176;51.448;6.650;2023-02-22T06:33:23;45650.03;;;-141.29;100.00
22025;BME280;11176;51.448;6.650;2023-02-22T06:35:49;45642.03;;;-141.29;100.00
22025;BME280;11176;51.448;6.650;2023-02-22T06:38:23;45644.03;;;-141.29;100.00
22025;BME280;11176;51.448;6.650;2023-02-22T06:40:50;45650.03;;;-141.29;100.00
22025;BME280;11176;51.448;6.650;2023-02-22T06:43:16;45652.03;;;-141.29;100.00
22025;BME280;11176;51.448;6.650;2023-02-22T06:45:43;45650.03;;;-141.29;100.00
22025;BME280;11176;51.448;6.650;2023-02-22T06:48:09;45646.03;;;-141.29;100.00
22025;BME280;11176;51.448;6.650;2023-02-22T06:50:36;45646.03;;;-141.29;100.00
22025;BME280;11176;51.448;6.650;2023-02-22T06:53:03;45654.03;;;-141.29;100.00
22025;BME280;11176;51.448;6.650;2023-02-22T06:55:32;45676.03;;;-141.29;100.00
22025;BME280;11176;51.448;6.650;2023-02-22T06:58:00;45654.03;;;-141.29;100.00
22025;BME280;11176;51.448;6.650;2023-02-22T07:00:28;45658.03;;;-141.29;100.00
22025;BME280;11176;51.448;6.650;2023-02-22T07:02:56;45642.03;;;-141.29;100.00
22025;BME280;11176;51.448;6.650;2023-02-22T07:05:24;45644.03;;;-141.29;100.00
22025;BME280;11176;51.448;6.650;2023-02-22T07:07:52;45654.03;;;-141.29;100.00
22025;BME280;11176;51.448;6.650;2023-02-22T07:10:29;45656.03;;;-141.29;100.00
22025;BME280;11176;51.448;6.650;2023-02-22T07:12:56;45652.03;;;-141.29;100.00
22025;BME280;11176;51.448;6.650;2023-02-22T07:15:24;45656.03;;;-141.29;100.00
22025;BME280;11176;51.448;6.650;2023-02-22T07:17:51;45658.03;;;-141.29;100.00
22025;BME280;11176;51.448;6.650;2023-02-22T07:20:19;45642.03;;;-141.29;100.00
22025;BME280;11176;51.448;6.650;2023-02-22T07:22:47;45658.03;;;-141.29;100.00
22025;BME280;11176;51.448;6.650;2023-02-22T07:25:13;45638.06;;;-141.29;100.00
22025;BME280;11176;51.448;6.650;2023-02-22T07:27:40;45650.03;;;-141.29;100.00
22025;BME280;11176;51.448;6.650;2023-02-22T07:30:18;45642.03;;;-141.29;100.00
22025;BME280;11176;51.448;6.650;2023-02-22T07:32:45;45646.03;;;-141.29;100.00
22025;BME280;11176;51.448;6.650;2023-02-22T07:35:16;45650.03;;;-141.29;100.00
22025;BME280;11176;51.448;6.650;2023-02-22T07:37:43;45646.03;;;-141.29;100.00
22025;BME280;11176;51.448;6.650;2023-02-22T07:40:11;45642.03;;;-141.29;100.00
22025;BME280;11176;51.448;6.650;2023-02-22T07:42:59;45634.06;;;-141.29;100.00
22025;BME280;11176;51.448;6.650;2023-02-22T07:45:33;45662.03;;;-141.29;100.00
22025;BME280;11176;51.448;6.650;2023-02-22T07:48:02;45668.03;;;-141.29;100.00
22025;BME280;11176;51.448;6.650;2023-02-22T07:50:30;45634.06;;;-141.29;100.00
22025;BME280;11176;51.448;6.650;2023-02-22T07:52:59;45636.06;;;-141.29;100.00
22025;BME280;11176;51.448;6.650;2023-02-22T07:55:27;45650.03;;;-141.29;100.00
22025;BME280;11176;51.448;6.650;2023-02-22T07:57:56;45646.03;;;-141.29;100.00
22025;BME280;11176;51.448;6.650;2023-02-22T08:00:29;45654.03;;;-141.29;100.00
22025;BME280;11176;51.448;6.650;2023-02-22T08:02:59;45642.03;;;-141.29;100.00
22025;BME280;11176;51.448;6.650;2023-02-22T08:05:27;45642.03;;;-141.29;100.00
22025;BME280;11176;51.448;6.650;2023-02-22T08:07:54;45636.06;;;-141.29;100.00
22025;BME280;11176;51.448;6.650;2023-02-22T08:10:22;45634.06;;;-141.29;100.00
22025;BME280;11176;51.448;6.650;2023-02-22T08:12:50;45626.06;;;-141.29;100.00
22025;BME280;11176;51.448;6.650;2023-02-22T08:15:20;45646.03;;;-141.29;100.00
22025;BME280;11176;51.448;6.650;2023-02-22T08:17:47;45642.03;;;-141.29;100.00
22025;BME280;11176;51.448;6.650;2023-02-22T08:20:14;45622.06;;;-141.29;100.00
22025;BME280;11176;51.448;6.650;2023-02-22T08:22:44;45634.06;;;-141.29;100.00
22025;BME280;11176;51.448;6.650;2023-02-22T08:25:12;45630.06;;;-141.29;100.00
22025;BME280;11176;51.448;6.650;2023-02-22T08:27:38;45606.06;;;-141.29;100.00
22025;BME280;11176;51.448;6.650;2023-02-22T08:30:05;45642.03;;;-141.29;100.00
22025;BME280;11176;51.448;6.650;2023-02-22T08:32:33;45630.06;;;-141.29;100.00
22025;BME280;11176;51.448;6.650;2023-02-22T08:35:02;45624.06;;;-141.29;100.00
22025;BME280;11176;51.448;6.650;2023-02-22T08:37:28;45626.06;;;-141.29;100.00
22025;BME280;11176;51.448;6.650;2023-02-22T08:39:54;45618.06;;;-141.29;100.00
22025;BME280;11176;51.448;6.650;2023-02-22T08:42:21;45610.06;;;-141.29;100.00
22025;BME280;11176;51.448;6.650;2023-02-22T08:44:48;45638.06;;;-141.29;100.00
22025;BME280;11176;51.448;6.650;2023-02-22T08:47:15;45602.06;;;-141.29;100.00
22025;BME280;11176;51.448;6.650;2023-02-22T08:49:41;45614.06;;;-141.29;100.00
22025;BME280;11176;51.448;6.650;2023-02-22T08:52:08;45610.06;;;-141.29;100.00
22025;BME280;11176;51.448;6.650;2023-02-22T08:54:34;45618.06;;;-141.29;100.00
22025;BME280;11176;51.448;6.650;2023-02-22T08:57:00;45602.06;;;-141.29;100.00
22025;BME280;11176;51.448;6.650;2023-02-22T08:59:27;45604.06;;;-141.29;100.00
22025;BME280;11176;51.448;6.650;2023-02-22T09:01:53;45592.09;;;-141.29;100.00
22025;BME280;11176;51.448;6.650;2023-02-22T09:04:21;45590.09;;;-141.29;100.00
22025;BME280;11176;51.448;6.650;2023-02-22T09:06:47;45604.06;;;-141.29;100.00
22025;BME280;11176;51.448;6.650;2023-02-22T09:09:18;45606.06;;;-141.29;100.00
22025;BME280;11176;51.448;6.650;2023-02-22T09:11:47;45602.06;;;-141.29;100.00
22025;BME280;11176;51.448;6.650;2023-02-22T09:14:14;45610.06;;;-141.29;100.00
22025;BME280;11176;51.448;6.650;2023-02-22T09:16:43;45620.06;;;-141.29;100.00
22025;BME280;11176;51.448;6.650;2023-02-22T09:19:10;45586.09;;;-141.29;100.00
22025;BME280;11176;51.448;6.650;2023-02-22T09:21:37;45574.09;;;-141.29;100.00
22025;BME280;11176;51.448;6.650;2023-02-22T09:24:06;45576.09;;;-141.29;100.00
22025;BME280;11176;51.448;6.650;2023-02-22T09:26:37;45578.09;;;-141.29;100.00
22025;BME280;11176;51.448;6.650;2023-02-22T09:29:08;45606.06;;;-141.29;100.00
22025;BME280;11176;51.448;6.650;2023-02-22T09:31:39;45582.09;;;-141.29;100.00
22025;BME280;11176;51.448;6.650;2023-02-22T09:34:07;45590.09;;;-141.29;100.00
22025;BME280;11176;51.448;6.650;2023-02-22T09:36:42;45560.09;;;-141.29;100.00
22025;BME280;11176;51.448;6.650;2023-02-22T09:39:08;45572.09;;;-141.29;100.00
22025;BME280;11176;51.448;6.650;2023-02-22T09:44:27;45566.09;;;-141.29;99.28
22025;BME280;11176;51.448;6.650;2023-02-22T09:47:02;45578.09;;;-141.29;98.34
22025;BME280;11176;51.448;6.650;2023-02-22T09:49:42;45564.09;;;-141.29;97.43
22025;BME280;11176;51.448;6.650;2023-02-22T09:52:21;45562.09;;;-141.29;97.52
22025;BME280;11176;51.448;6.650;2023-02-22T09:54:54;45582.09;;;-141.29;96.86
22025;BME280;11176;51.448;6.650;2023-02-22T09:57:30;45570.09;;;-141.29;97.14
22025;BME280;11176;51.448;6.650;2023-02-22T10:00:28;45548.13;;;-141.29;96.18
22025;BME280;11176;51.448;6.650;2023-02-22T10:03:21;45568.09;;;-141.29;96.10
22025;BME280;11176;51.448;6.650;2023-02-22T10:06:08;45556.09;;;-141.29;95.56
22025;BME280;11176;51.448;6.650;2023-02-22T10:08:36;45530.13;;;-141.29;95.49
22025;BME280;11176;51.448;6.650;2023-02-22T10:16:35;45538.13;;;-141.29;96.22
22025;BME280;11176;51.448;6.650;2023-02-22T10:19:15;45544.13;;;-141.29;95.60
22025;BME280;11176;51.448;6.650;2023-02-22T10:21:54;45538.13;;;-141.29;94.16
22025;BME280;11176;51.448;6.650;2023-02-22T10:27:34;45534.13;;;-141.29;92.29
22025;BME280;11176;51.448;6.650;2023-02-22T10:30:34;45524.13;;;-141.29;91.48
22025;BME280;11176;51.448;6.650;2023-02-22T10:33:16;45524.13;;;-141.29;91.51
22025;BME280;11176;51.448;6.650;2023-02-22T10:35:45;45510.16;;;-141.29;90.07
22025;BME280;11176;51.448;6.650;2023-02-22T10:40:49;45514.13;;;-141.29;87.55
22025;BME280;11176;51.448;6.650;2023-02-22T10:43:18;45510.16;;;-141.29;86.92
22025;BME280;11176;51.448;6.650;2023-02-22T10:45:45;45498.16;;;-141.29;86.85
22025;BME280;11176;51.448;6.650;2023-02-22T10:48:15;45500.16;;;-141.29;86.67
22025;BME280;11176;51.448;6.650;2023-02-22T10:50:44;45530.13;;;-141.29;86.37
22025;BME280;11176;51.448;6.650;2023-02-22T10:53:12;45504.16;;;-141.29;86.06
22025;BME280;11176;51.448;6.650;2023-02-22T10:56:06;45476.16;;;-141.29;85.61
22025;BME280;11176;51.448;6.650;2023-02-22T10:59:03;45502.16;;;-141.29;85.22
22025;BME280;11176;51.448;6.650;2023-02-22T11:06:32;45470.19;;;-141.29;83.58
22025;BME280;11176;51.448;6.650;2023-02-22T11:09:28;45470.19;;;-141.29;83.73
22025;BME280;11176;51.448;6.650;2023-02-22T11:12:10;45476.16;;;-141.29;83.08
22025;BME280;11176;51.448;6.650;2023-02-22T11:14:36;45480.16;;;-141.29;83.03
22025;BME280;11176;51.448;6.650;2023-02-22T11:17:06;45466.19;;;-141.29;82.71
22025;BME280;11176;51.448;6.650;2023-02-22T11:19:33;45490.16;;;-141.29;82.61
22025;BME280;11176;51.448;6.650;2023-02-22T11:24:52;45450.19;;;-141.29;80.63
22025;BME280;11176;51.448;6.650;2023-02-22T11:27:31;45458.19;;;-141.29;79.95
22025;BME280;11176;51.448;6.650;2023-02-22T11:30:26;45434.19;;;-141.29;77.19
22025;BME280;11176;51.448;6.650;2023-02-22T11:35:49;45442.19;;;-141.29;73.23
22025;BME280;11176;51.448;6.650;2023-02-22T11:38:23;45424.22;;;-141.29;71.56
22025;BME280;11176;51.448;6.650;2023-02-22T11:41:13;45430.22;;;-141.29;70.28
22025;BME280;11176;51.448;6.650;2023-02-22T11:43:48;45422.22;;;-141.29;69.25
22025;BME280;11176;51.448;6.650;2023-02-22T11:46:33;45414.22;;;-141.29;68.13
22025;BME280;11176;51.448;6.650;2023-02-22T11:49:08;45400.22;;;-141.29;68.01
22025;BME280;11176;51.448;6.650;2023-02-22T11:51:58;45398.22;;;-141.29;66.75
22025;BME280;11176;51.448;6.650;2023-02-22T12:00:32;45370.25;;;-141.29;63.14
22025;BME280;11176;51.448;6.650;2023-02-22T12:03:21;45410.22;;;-141.29;62.48
22025;BME280;11176;51.448;6.650;2023-02-22T12:06:40;45382.25;;;-141.29;59.96
22025;BME280;11176;51.448;6.650;2023-02-22T12:11:54;45380.25;;;-141.29;61.49
22025;BME280;11176;51.448;6.650;2023-02-22T12:14:40;45386.25;;;-141.29;61.45
22025;BME280;11176;51.448;6.650;2023-02-22T12:20:19;45370.25;;;-141.29;60.44
22025;BME280;11176;51.448;6.650;2023-02-22T12:26:00;45374.25;;;-141.29;58.33
22025;BME280;11176;51.448;6.650;2023-02-22T12:28:46;45374.25;;;-141.29;58.10
22025;BME280;11176;51.448;6.650;2023-02-22T12:31:28;45356.25;;;-141.29;58.27
22025;BME280;11176;51.448;6.650;2023-02-22T12:34:06;45378.25;;;-141.29;58.07
22025;BME280;11176;51.448;6.650;2023-02-22T12:36:44;45352.28;;;-141.29;57.12
22025;BME280;11176;51.448;6.650;2023-02-22T12:39:32;45348.28;;;-141.29;57.25
22025;BME280;11176;51.448;6.650;2023-02-22T12:45:15;45354.25;;;-141.29;55.08
22025;BME280;11176;51.448;6.650;2023-02-22T12:47:49;45354.25;;;-141.29;54.55
22025;BME280;11176;51.448;6.650;2023-02-22T12:50:21;45334.28;;;-141.29;53.34
22025;BME280;11176;51.448;6.650;2023-02-22T12:52:56;45338.28;;;-141.29;53.75
22025;BME280;11176;51.448;6.650;2023-02-22T12:56:09;45322.28;;;-141.29;54.24
22025;BME280;11176;51.448;6.650;2023-02-22T12:59:02;45338.28;;;-141.29;54.75
22025;BME280;11176;51.448;6.650;2023-02-22T13:01:43;45338.28;;;-141.29;53.48
22025;BME280;11176;51.448;6.650;2023-02-22T13:04:11;45330.28;;;-141.29;52.96
22025;BME280;11176;51.448;6.650;2023-02-22T13:07:16;45318.28;;;-141.29;54.04
22025;BME280;11176;51.448;6.650;2023-02-22T13:10:02;45322.28;;;-141.29;53.68
22025;BME280;11176;51.448;6.650;2023-02-22T13:12:48;45322.28;;;-141.29;52.77
22025;BME280;11176;51.448;6.650;2023-02-22T13:15:42;45328.28;;;-141.29;51.53
22025;BME280;11176;51.448;6.650;2023-02-22T13:18:22;45326.28;;;-141.29;51.15
22025;BME280;11176;51.448;6.650;2023-02-22T13:20:59;45326.28;;;-141.29;49.96
22025;BME280;11176;51.448;6.650;2023-02-22T13:23:42;45320.28;;;-141.29;49.01
22025;BME280;11176;51.448;6.650;2023-02-22T13:26:22;45318.28;;;-141.29;49.63
22025;BME280;11176;51.448;6.650;2023-02-22T13:29:05;45326.28;;;-141.29;49.84
22025;BME280;11176;51.448;6.650;2023-02-22T13:31:41;45322.28;;;-141.29;49.27
22025;BME280;11176;51.448;6.650;2023-02-22T13:34:20;45334.28;;;-141.29;48.81
22025;BME280;11176;51.448;6.650;2023-02-22T13:48:23;45326.28;;;-141.29;45.41
22025;BME280;11176;51.448;6.650;2023-02-22T13:53:48;45318.28;;;-141.29;44.29
22025;BME280;11176;51.448;6.650;2023-02-22T13:56:17;45318.28;;;-141.29;44.15
22025;BME280;11176;51.448;6.650;2023-02-22T13:58:57;45322.28;;;-141.29;45.25
22025;BME280;11176;51.448;6.650;2023-02-22T14:01:44;45310.31;;;-141.29;44.00
22025;BME280;11176;51.448;6.650;2023-02-22T14:06:55;45322.28;;;-141.29;46.04
22025;BME280;11176;51.448;6.650;2023-02-22T14:18:01;45322.28;;;-141.29;47.39
22025;BME280;11176;51.448;6.650;2023-02-22T14:20:33;45318.28;;;-141.29;47.16
22025;BME280;11176;51.448;6.650;2023-02-22T14:24:04;45322.28;;;-141.29;48.28
22025;BME280;11176;51.448;6.650;2023-02-22T14:26:24;45332.28;;;-141.29;49.03
22025;BME280;11176;51.448;6.650;2023-02-22T14:31:33;45334.28;;;-141.29;49.57
22025;BME280;11176;51.448;6.650;2023-02-22T14:34:06;45342.28;;;-141.29;50.43
22025;BME280;11176;51.448;6.650;2023-02-22T14:39:15;45338.28;;;-141.29;51.49
22025;BME280;11176;51.448;6.650;2023-02-22T14:41:51;45366.25;;;-141.29;51.74